sensor_id;sensor_type;location;lat;lon;timestamp;pressure;altitude;pressure_sealevel;temperature;humidity
36538;BME280;22545;48.892;9.138;2022-09-20T00:01:08;98547.78;;;9.02;100.00
36538;BME280;22545;48.892;9.138;2022-09-20T00:03:37;98542.41;;;9.13;100.00
36538;BME280;22545;48.892;9.138;2022-09-20T00:06:04;98539.63;;;9.22;100.00
36538;BME280;22545;48.892;9.138;2022-09-20T00:08:29;98542.66;;;9.02;100.00
36538;BME280;22545;48.892;9.138;2022-09-20T00:11:08;98542.84;;;8.94;100.00
36538;BME280;22545;48.892;9.138;2022-09-20T00:13:34;98543.88;;;8.85;100.00
36538;BME280;22545;48.892;9.138;2022-09-20T00:16:03;98544.00;;;8.81;100.00
36538;BME280;22545;48.892;9.138;2022-09-20T00:18:28;98541.88;;;8.59;100.00
36538;BME280;22545;48.892;9.138;2022-09-20T00:20:53;98538.97;;;8.76;100.00
36538;BME280;22545;48.892;9.138;2022-09-20T00:23:18;98539.06;;;8.70;100.00
36538;BME280;22545;48.892;9.138;2022-09-20T00:25:44;98539.56;;;8.88;100.00
36538;BME280;22545;48.892;9.138;2022-09-20T00:28:10;98531.53;;;9.01;100.00
36538;BME280;22545;48.892;9.138;2022-09-20T00:30:35;98539.03;;;9.09;100.00
36538;BME280;22545;48.892;9.138;2022-09-20T00:33:01;98542.28;;;9.17;100.00
36538;BME280;22545;48.892;9.138;2022-09-20T00:35:27;98530.41;;;9.13;100.00
36538;BME280;22545;48.892;9.138;2022-09-20T00:37:53;98545.25;;;9.00;100.00
36538;BME280;22545;48.892;9.138;2022-09-20T00:40:19;98543.53;;;9.01;100.00
36538;BME280;22545;48.892;9.138;2022-09-20T00:42:45;98545.19;;;9.03;100.00
36538;BME280;22545;48.892;9.138;2022-09-20T00:45:16;98538.53;;;8.95;100.00
36538;BME280;22545;48.892;9.138;2022-09-20T00:52:59;98476.38;;;8.83;100.00
36538;BME280;22545;48.892;9.138;2022-09-20T00:55:26;98541.03;;;8.98;100.00
36538;BME280;22545;48.892;9.138;2022-09-20T00:57:52;98548.63;;;9.02;100.00
36538;BME280;22545;48.892;9.138;2022-09-20T01:00:18;98534.69;;;9.13;100.00
36538;BME280;22545;48.892;9.138;2022-09-20T01:02:48;98538.09;;;9.13;100.00
36538;BME280;22545;48.892;9.138;2022-09-20T01:05:14;98537.59;;;8.99;100.00
36538;BME280;22545;48.892;9.138;2022-09-20T01:07:41;98542.81;;;8.96;100.00
36538;BME280;22545;48.892;9.138;2022-09-20T01:10:07;98536.16;;;8.87;100.00
36538;BME280;22545;48.892;9.138;2022-09-20T01:12:33;98541.13;;;8.93;100.00
36538;BME280;22545;48.892;9.138;2022-09-20T01:14:59;98542.00;;;8.92;100.00
36538;BME280;22545;48.892;9.138;2022-09-20T01:17:26;98531.19;;;8.79;100.00
36538;BME280;22545;48.892;9.138;2022-09-20T01:27:58;98536.03;;;8.92;100.00
36538;BME280;22545;48.892;9.138;2022-09-20T01:30:24;98541.34;;;8.84;100.00
36538;BME280;22545;48.892;9.138;2022-09-20T01:35:27;98538.72;;;8.87;100.00
36538;BME280;22545;48.892;9.138;2022-09-20T01:40:43;98532.59;;;8.93;100.00
36538;BME280;22545;48.892;9.138;2022-09-20T01:45:59;98534.81;;;9.08;100.00
36538;BME280;22545;48.892;9.138;2022-09-20T01:48:32;98533.06;;;9.09;100.00
36538;BME280;22545;48.892;9.138;2022-09-20T01:51:23;98533.16;;;9.06;100.00
36538;BME280;22545;48.892;9.138;2022-09-20T01:54:04;98528.88;;;9.04;100.00
36538;BME280;22545;48.892;9.138;2022-09-20T01:59:26;98536.47;;;9.09;100.00
36538;BME280;22545;48.892;9.138;2022-09-20T02:14:44;98534.25;;;9.31;100.00
36538;BME280;22545;48.892;9.138;2022-09-20T02:17:19;98525.50;;;9.40;100.00
36538;BME280;22545;48.892;9.138;2022-09-20T02:43:09;98530.41;;;9.13;100.00
36538;BME280;22545;48.892;9.138;2022-09-20T02:45:47;98513.59;;;9.36;100.00
36538;BME280;22545;48.892;9.138;2022-09-20T02:48:17;98525.44;;;9.06;100.00
36538;BME280;22545;48.892;9.138;2022-09-20T02:50:48;98522.84;;;9.07;100.00
36538;BME280;22545;48.892;9.138;2022-09-20T02:55:49;98521.00;;;9.14;100.00
36538;BME280;22545;48.892;9.138;2022-09-20T03:01:12;98521.03;;;9.11;100.00
36538;BME280;22545;48.892;9.138;2022-09-20T03:03:53;98524.09;;;8.91;100.00
36538;BME280;22545;48.892;9.138;2022-09-20T03:19:24;98532.34;;;8.66;100.00
36538;BME280;22545;48.892;9.138;2022-09-20T03:35:27;98543.38;;;9.07;100.00
36538;BME280;22545;48.892;9.138;2022-09-20T03:37:58;98542.97;;;8.86;100.00
36538;BME280;22545;48.892;9.138;2022-09-20T03:42:56;98546.09;;;9.01;100.00
36538;BME280;22545;48.892;9.138;2022-09-20T03:45:32;98548.13;;;8.86;100.00
36538;BME280;22545;48.892;9.138;2022-09-20T03:48:10;98547.22;;;8.89;100.00
36538;BME280;22545;48.892;9.138;2022-09-20T04:03:37;98563.72;;;9.15;100.00
36538;BME280;22545;48.892;9.138;2022-09-20T04:11:09;98560.06;;;9.25;100.00
36538;BME280;22545;48.892;9.138;2022-09-20T04:21:22;98558.66;;;9.12;100.00
36538;BME280;22545;48.892;9.138;2022-09-20T04:26:35;98563.19;;;9.02;100.00
36538;BME280;22545;48.892;9.138;2022-09-20T04:31:47;98559.53;;;9.12;100.00
36538;BME280;22545;48.892;9.138;2022-09-20T04:34:18;98567.41;;;9.03;100.00
36538;BME280;22545;48.892;9.138;2022-09-20T04:47:47;98570.56;;;9.16;100.00
36538;BME280;22545;48.892;9.138;2022-09-20T05:00:22;98597.47;;;8.98;100.00
36538;BME280;22545;48.892;9.138;2022-09-20T05:08:23;98601.19;;;8.84;100.00
36538;BME280;22545;48.892;9.138;2022-09-20T05:11:11;98602.81;;;8.89;100.00
36538;BME280;22545;48.892;9.138;2022-09-20T05:16:20;98602.47;;;8.63;100.00
36538;BME280;22545;48.892;9.138;2022-09-20T05:21:27;98605.13;;;8.59;100.00
36538;BME280;22545;48.892;9.138;2022-09-20T05:29:03;98599.38;;;8.47;100.00
36538;BME280;22545;48.892;9.138;2022-09-20T05:31:40;98605.66;;;8.31;100.00
36538;BME280;22545;48.892;9.138;2022-09-20T05:34:13;98609.78;;;8.38;100.00
36538;BME280;22545;48.892;9.138;2022-09-20T05:41:58;98610.50;;;8.46;100.00
36538;BME280;22545;48.892;9.138;2022-09-20T05:44:30;98620.13;;;8.77;
36538;BME280;22545;48.892;9.138;2022-09-20T05:47:09;98616.69;;;8.78;100.00
36538;BME280;22545;48.892;9.138;2022-09-20T05:49:51;98616.56;;;8.84;100.00
36538;BME280;22545;48.892;9.138;2022-09-20T06:00:34;98618.75;;;9.77;100.00
36538;BME280;22545;48.892;9.138;2022-09-20T06:05:48;98624.13;;;10.35;100.00
36538;BME280;22545;48.892;9.138;2022-09-20T06:13:48;98624.13;;;12.30;100.00
36538;BME280;22545;48.892;9.138;2022-09-20T06:16:38;98635.41;;;13.22;100.00
36538;BME280;22545;48.892;9.138;2022-09-20T06:19:21;98625.41;;;13.99;100.00
36538;BME280;22545;48.892;9.138;2022-09-20T06:21:52;98626.38;;;14.38;100.00
36538;BME280;22545;48.892;9.138;2022-09-20T06:27:04;98635.50;;;15.42;100.00
36538;BME280;22545;48.892;9.138;2022-09-20T06:29:33;98632.31;;;15.54;100.00
36538;BME280;22545;48.892;9.138;2022-09-20T06:31:59;98636.19;;;16.51;100.00
36538;BME280;22545;48.892;9.138;2022-09-20T06:34:25;98632.16;;;16.45;100.00
36538;BME280;22545;48.892;9.138;2022-09-20T06:36:53;98636.66;;;17.71;100.00
36538;BME280;22545;48.892;9.138;2022-09-20T06:39:46;98631.66;;;17.82;96.27
36538;BME280;22545;48.892;9.138;2022-09-20T06:42:32;98643.72;;;18.44;91.20
36538;BME280;22545;48.892;9.138;2022-09-20T06:44:57;98643.34;;;18.35;92.14
36538;BME280;22545;48.892;9.138;2022-09-20T06:47:22;98637.75;;;18.56;86.06
36538;BME280;22545;48.892;9.138;2022-09-20T06:49:48;98642.38;;;19.08;80.48
36538;BME280;22545;48.892;9.138;2022-09-20T06:52:15;98646.66;;;18.23;88.77
36538;BME280;22545;48.892;9.138;2022-09-20T06:54:44;98642.53;;;17.90;99.52
36538;BME280;22545;48.892;9.138;2022-09-20T06:57:11;98644.69;;;17.82;96.75
36538;BME280;22545;48.892;9.138;2022-09-20T06:59:36;98660.41;;;16.85;100.00
36538;BME280;22545;48.892;9.138;2022-09-20T07:02:01;98644.44;;;16.08;100.00
36538;BME280;22545;48.892;9.138;2022-09-20T07:04:27;98657.19;;;16.13;100.00
36538;BME280;22545;48.892;9.138;2022-09-20T07:06:58;98654.22;;;16.54;100.00
36538;BME280;22545;48.892;9.138;2022-09-20T07:09:23;98659.31;;;16.73;100.00
36538;BME280;22545;48.892;9.138;2022-09-20T07:11:48;98648.22;;;16.69;100.00
36538;BME280;22545;48.892;9.138;2022-09-20T07:14:13;98649.13;;;15.65;100.00
36538;BME280;22545;48.892;9.138;2022-09-20T07:16:39;98652.41;;;15.32;100.00
36538;BME280;22545;48.892;9.138;2022-09-20T07:19:04;98646.06;;;14.82;100.00
36538;BME280;22545;48.892;9.138;2022-09-20T07:21:30;98658.31;;;14.58;100.00
36538;BME280;22545;48.892;9.138;2022-09-20T07:23:56;98664.78;;;14.27;100.00
36538;BME280;22545;48.892;9.138;2022-09-20T07:26:25;98663.47;;;13.53;100.00
36538;BME280;22545;48.892;9.138;2022-09-20T07:28:52;98665.31;;;13.05;100.00
36538;BME280;22545;48.892;9.138;2022-09-20T07:31:18;98669.34;;;12.89;100.00
36538;BME280;22545;48.892;9.138;2022-09-20T07:33:43;98666.09;;;12.60;100.00
36538;BME280;22545;48.892;9.138;2022-09-20T07:36:09;98662.19;;;12.48;100.00
36538;BME280;22545;48.892;9.138;2022-09-20T07:38:36;98660.72;;;12.66;100.00
36538;BME280;22545;48.892;9.138;2022-09-20T07:41:01;98664.28;;;12.62;100.00
36538;BME280;22545;48.892;9.138;2022-09-20T07:43:27;98660.28;;;12.53;100.00
36538;BME280;22545;48.892;9.138;2022-09-20T07:45:53;98661.56;;;12.42;100.00
36538;BME280;22545;48.892;9.138;2022-09-20T07:48:23;98669.22;;;12.68;100.00
36538;BME280;22545;48.892;9.138;2022-09-20T07:50:54;98678.50;;;12.74;100.00
36538;BME280;22545;48.892;9.138;2022-09-20T07:53:19;98678.44;;;12.99;100.00
36538;BME280;22545;48.892;9.138;2022-09-20T07:55:58;98670.88;;;13.40;100.00
36538;BME280;22545;48.892;9.138;2022-09-20T07:58:23;98677.72;;;14.47;100.00
36538;BME280;22545;48.892;9.138;2022-09-20T08:00:55;98682.88;;;15.27;100.00
36538;BME280;22545;48.892;9.138;2022-09-20T08:03:21;98678.09;;;15.55;100.00
36538;BME280;22545;48.892;9.138;2022-09-20T08:05:47;98686.97;;;15.50;100.00
36538;BME280;22545;48.892;9.138;2022-09-20T08:08:13;98684.34;;;14.94;100.00
36538;BME280;22545;48.892;9.138;2022-09-20T08:10:38;98683.00;;;15.79;100.00
36538;BME280;22545;48.892;9.138;2022-09-20T08:13:05;98687.78;;;16.06;100.00
36538;BME280;22545;48.892;9.138;2022-09-20T08:15:31;98692.81;;;16.09;100.00
36538;BME280;22545;48.892;9.138;2022-09-20T08:17:56;98689.72;;;15.28;100.00
36538;BME280;22545;48.892;9.138;2022-09-20T08:20:21;98698.41;;;14.69;100.00
36538;BME280;22545;48.892;9.138;2022-09-20T08:22:46;98698.41;;;17.19;100.00
36538;BME280;22545;48.892;9.138;2022-09-20T08:25:12;98690.84;;;17.78;99.71
36538;BME280;22545;48.892;9.138;2022-09-20T08:27:37;98691.97;;;18.35;94.71
36538;BME280;22545;48.892;9.138;2022-09-20T08:30:02;98694.56;;;17.58;91.03
36538;BME280;22545;48.892;9.138;2022-09-20T08:32:27;98692.59;;;18.24;89.71
36538;BME280;22545;48.892;9.138;2022-09-20T08:34:53;98697.66;;;18.42;80.28
36538;BME280;22545;48.892;9.138;2022-09-20T08:37:18;98688.63;;;18.33;79.26
36538;BME280;22545;48.892;9.138;2022-09-20T08:39:43;98683.09;;;18.97;74.92
36538;BME280;22545;48.892;9.138;2022-09-20T08:42:13;98679.25;;;19.17;66.72
36538;BME280;22545;48.892;9.138;2022-09-20T08:44:48;98686.22;;;17.99;67.33
36538;BME280;22545;48.892;9.138;2022-09-20T08:49:42;98685.75;;;16.63;77.25
36538;BME280;22545;48.892;9.138;2022-09-20T08:52:08;98687.44;;;17.14;76.18
36538;BME280;22545;48.892;9.138;2022-09-20T08:54:35;98690.72;;;17.02;80.42
36538;BME280;22545;48.892;9.138;2022-09-20T08:57:01;98686.47;;;15.97;91.64
36538;BME280;22545;48.892;9.138;2022-09-20T08:59:29;98678.97;;;15.18;100.00
36538;BME280;22545;48.892;9.138;2022-09-20T09:01:55;98684.47;;;14.51;100.00
36538;BME280;22545;48.892;9.138;2022-09-20T09:04:21;98692.34;;;14.07;100.00
36538;BME280;22545;48.892;9.138;2022-09-20T09:06:47;98689.06;;;13.81;100.00
36538;BME280;22545;48.892;9.138;2022-09-20T09:09:21;98694.84;;;13.44;100.00
36538;BME280;22545;48.892;9.138;2022-09-20T09:11:48;98692.09;;;13.71;100.00
36538;BME280;22545;48.892;9.138;2022-09-20T09:14:23;98691.16;;;13.94;100.00
36538;BME280;22545;48.892;9.138;2022-09-20T09:17:08;98681.25;;;14.26;100.00
36538;BME280;22545;48.892;9.138;2022-09-20T09:19:44;98686.66;;;13.99;100.00
36538;BME280;22545;48.892;9.138;2022-09-20T09:22:10;98686.47;;;13.61;100.00
36538;BME280;22545;48.892;9.138;2022-09-20T09:24:35;98683.03;;;13.38;100.00
36538;BME280;22545;48.892;9.138;2022-09-20T09:27:04;98683.38;;;13.05;100.00
36538;BME280;22545;48.892;9.138;2022-09-20T09:29:30;98681.09;;;12.96;100.00
36538;BME280;22545;48.892;9.138;2022-09-20T09:31:55;98685.66;;;13.13;100.00
36538;BME280;22545;48.892;9.138;2022-09-20T09:34:40;98686.09;;;13.70;100.00
36538;BME280;22545;48.892;9.138;2022-09-20T09:37:08;98684.47;;;14.51;100.00
36538;BME280;22545;48.892;9.138;2022-09-20T09:39:45;98686.06;;;14.75;100.00
36538;BME280;22545;48.892;9.138;2022-09-20T09:42:20;98673.75;;;14.61;100.00
36538;BME280;22545;48.892;9.138;2022-09-20T09:44:46;98680.84;;;15.33;100.00
36538;BME280;22545;48.892;9.138;2022-09-20T09:47:26;98671.31;;;15.34;100.00
36538;BME280;22545;48.892;9.138;2022-09-20T09:49:56;98683.19;;;16.46;92.89
36538;BME280;22545;48.892;9.138;2022-09-20T09:52:21;98673.88;;;17.25;81.47
36538;BME280;22545;48.892;9.138;2022-09-20T09:54:51;98678.56;;;17.02;83.04
36538;BME280;22545;48.892;9.138;2022-09-20T10:05:04;98679.22;;;16.90;89.18
36538;BME280;22545;48.892;9.138;2022-09-20T10:20:09;98662.25;;;15.43;100.00
36538;BME280;22545;48.892;9.138;2022-09-20T10:22:57;98675.19;;;15.06;100.00
36538;BME280;22545;48.892;9.138;2022-09-20T10:30:30;98670.47;;;14.76;100.00
36538;BME280;22545;48.892;9.138;2022-09-20T10:35:41;98665.16;;;14.98;100.00
36538;BME280;22545;48.892;9.138;2022-09-20T10:49:09;98669.13;;;16.50;88.80
36538;BME280;22545;48.892;9.138;2022-09-20T10:54:09;98667.88;;;15.70;98.97
36538;BME280;22545;48.892;9.138;2022-09-20T11:09:28;98674.31;;;15.80;100.00
36538;BME280;22545;48.892;9.138;2022-09-20T11:12:05;98667.66;;;16.11;100.00
36538;BME280;22545;48.892;9.138;2022-09-20T11:14:34;98671.66;;;16.17;100.00
36538;BME280;22545;48.892;9.138;2022-09-20T11:17:13;98670.44;;;16.24;100.00
36538;BME280;22545;48.892;9.138;2022-09-20T11:22:19;98660.53;;;16.81;94.02
36538;BME280;22545;48.892;9.138;2022-09-20T11:27:19;98670.75;;;16.69;87.84
36538;BME280;22545;48.892;9.138;2022-09-20T11:32:15;98662.06;;;16.01;91.83
36538;BME280;22545;48.892;9.138;2022-09-20T11:34:51;98670.59;;;16.38;94.34
36538;BME280;22545;48.892;9.138;2022-09-20T11:37:19;98671.25;;;16.42;98.28
36538;BME280;22545;48.892;9.138;2022-09-20T11:42:22;98667.66;;;16.95;93.93
36538;BME280;22545;48.892;9.138;2022-09-20T11:44:50;98657.69;;;17.04;85.62
36538;BME280;22545;48.892;9.138;2022-09-20T11:47:18;98656.75;;;17.21;80.48
36538;BME280;22545;48.892;9.138;2022-09-20T11:57:35;98652.06;;;15.93;74.28
36538;BME280;22545;48.892;9.138;2022-09-20T12:00:01;98657.56;;;16.05;78.63
36538;BME280;22545;48.892;9.138;2022-09-20T12:05:31;98656.13;;;15.99;87.85
36538;BME280;22545;48.892;9.138;2022-09-20T12:07:59;98654.88;;;15.89;81.83
36538;BME280;22545;48.892;9.138;2022-09-20T12:10:26;98655.19;;;16.18;81.69
36538;BME280;22545;48.892;9.138;2022-09-20T12:13:02;98651.38;;;16.25;72.65
36538;BME280;22545;48.892;9.138;2022-09-20T12:15:29;98646.56;;;16.17;75.32
36538;BME280;22545;48.892;9.138;2022-09-20T12:26:39;98640.06;;;15.73;77.12
36538;BME280;22545;48.892;9.138;2022-09-20T12:28:42;98645.34;;;15.89;74.58
36538;BME280;22545;48.892;9.138;2022-09-20T12:33:55;98633.16;;;15.91;73.90
36538;BME280;22545;48.892;9.138;2022-09-20T12:36:21;98628.03;;;16.41;70.04
36538;BME280;22545;48.892;9.138;2022-09-20T12:38:47;98622.47;;;16.49;71.97
36538;BME280;22545;48.892;9.138;2022-09-20T12:41:16;98619.69;;;16.18;65.75
36538;BME280;22545;48.892;9.138;2022-09-20T12:43:52;98618.41;;;15.92;69.45
36538;BME280;22545;48.892;9.138;2022-09-20T12:46:21;98626.59;;;16.02;73.59
36538;BME280;22545;48.892;9.138;2022-09-20T12:48:48;98625.66;;;16.03;70.19
36538;BME280;22545;48.892;9.138;2022-09-20T12:54:07;98622.38;;;15.99;66.85
36538;BME280;22545;48.892;9.138;2022-09-20T12:56:34;98618.41;;;15.92;66.32
36538;BME280;22545;48.892;9.138;2022-09-20T12:59:00;98628.72;;;16.11;72.53
36538;BME280;22545;48.892;9.138;2022-09-20T13:01:30;98625.25;;;16.10;68.12
36538;BME280;22545;48.892;9.138;2022-09-20T13:04:37;98631.88;;;15.64;68.61
36538;BME280;22545;48.892;9.138;2022-09-20T13:06:41;98617.66;;;15.36;84.94
36538;BME280;22545;48.892;9.138;2022-09-20T13:09:06;98619.13;;;14.86;100.00
36538;BME280;22545;48.892;9.138;2022-09-20T13:19:27;98634.53;;;14.29;100.00
36538;BME280;22545;48.892;9.138;2022-09-20T13:24:19;98636.09;;;14.12;100.00
36538;BME280;22545;48.892;9.138;2022-09-20T13:26:45;98634.53;;;14.08;98.06
36538;BME280;22545;48.892;9.138;2022-09-20T13:29:21;98624.69;;;14.16;89.71
36538;BME280;22545;48.892;9.138;2022-09-20T13:31:46;98627.41;;;14.13;94.82
36538;BME280;22545;48.892;9.138;2022-09-20T13:34:22;98638.84;;;14.28;100.00
36538;BME280;22545;48.892;9.138;2022-09-20T13:36:50;98630.75;;;14.36;100.00
36538;BME280;22545;48.892;9.138;2022-09-20T13:39:34;98633.19;;;14.20;100.00
36538;BME280;22545;48.892;9.138;2022-09-20T13:42:03;98631.97;;;14.08;100.00
36538;BME280;22545;48.892;9.138;2022-09-20T13:44:30;98628.75;;;14.03;100.00
36538;BME280;22545;48.892;9.138;2022-09-20T13:46:58;98636.03;;;13.93;100.00
36538;BME280;22545;48.892;9.138;2022-09-20T13:49:23;98642.16;;;13.91;100.00
36538;BME280;22545;48.892;9.138;2022-09-20T13:51:49;98641.09;;;13.74;100.00
36538;BME280;22545;48.892;9.138;2022-09-20T13:54:28;98642.91;;;13.72;100.00
36538;BME280;22545;48.892;9.138;2022-09-20T13:56:55;98636.47;;;13.83;100.00
36538;BME280;22545;48.892;9.138;2022-09-20T13:59:22;98652.38;;;13.94;100.00
36538;BME280;22545;48.892;9.138;2022-09-20T14:01:48;98645.75;;;13.66;100.00
36538;BME280;22545;48.892;9.138;2022-09-20T14:04:15;98653.88;;;13.79;100.00
36538;BME280;22545;48.892;9.138;2022-09-20T14:06:41;98648.28;;;13.68;100.00
36538;BME280;22545;48.892;9.138;2022-09-20T14:09:08;98654.22;;;13.70;100.00
36538;BME280;22545;48.892;9.138;2022-09-20T14:11:42;98654.06;;;13.52;100.00
36538;BME280;22545;48.892;9.138;2022-09-20T14:14:08;98652.56;;;13.69;100.00
36538;BME280;22545;48.892;9.138;2022-09-20T14:16:37;98648.03;;;13.52;100.00
36538;BME280;22545;48.892;9.138;2022-09-20T14:19:03;98655.25;;;13.66;100.00
36538;BME280;22545;48.892;9.138;2022-09-20T14:21:33;98651.88;;;13.63;100.00
36538;BME280;22545;48.892;9.138;2022-09-20T14:26:31;98645.13;;;13.81;100.00
36538;BME280;22545;48.892;9.138;2022-09-20T14:31:47;98646.38;;;13.93;100.00
36538;BME280;22545;48.892;9.138;2022-09-20T14:34:13;98639.16;;;14.02;100.00
36538;BME280;22545;48.892;9.138;2022-09-20T14:36:38;98627.88;;;14.23;100.00
36538;BME280;22545;48.892;9.138;2022-09-20T14:39:04;98636.34;;;14.27;96.85
36538;BME280;22545;48.892;9.138;2022-09-20T14:41:37;98629.88;;;14.37;96.81
36538;BME280;22545;48.892;9.138;2022-09-20T14:44:03;98630.75;;;14.36;98.38
36538;BME280;22545;48.892;9.138;2022-09-20T14:46:31;98629.22;;;14.32;95.46
36538;BME280;22545;48.892;9.138;2022-09-20T14:51:41;98636.94;;;14.52;96.77
36538;BME280;22545;48.892;9.138;2022-09-20T14:56:33;98636.81;;;14.56;100.00
36538;BME280;22545;48.892;9.138;2022-09-20T15:01:31;98643.25;;;14.47;100.00
36538;BME280;22545;48.892;9.138;2022-09-20T15:03:56;98635.69;;;14.42;100.00
36538;BME280;22545;48.892;9.138;2022-09-20T15:06:22;98645.78;;;14.28;100.00
36538;BME280;22545;48.892;9.138;2022-09-20T15:08:48;98637.44;;;14.42;100.00
36538;BME280;22545;48.892;9.138;2022-09-20T15:11:14;98639.53;;;14.13;100.00
36538;BME280;22545;48.892;9.138;2022-09-20T15:13:39;98638.03;;;14.28;100.00
36538;BME280;22545;48.892;9.138;2022-09-20T15:16:05;98636.41;;;14.25;100.00
36538;BME280;22545;48.892;9.138;2022-09-20T15:18:34;98634.34;;;14.13;100.00
36538;BME280;22545;48.892;9.138;2022-09-20T15:21:01;98628.75;;;14.03;100.00
36538;BME280;22545;48.892;9.138;2022-09-20T15:23:26;98638.81;;;13.89;100.00
36538;BME280;22545;48.892;9.138;2022-09-20T15:25:52;98638.81;;;13.89;100.00
36538;BME280;22545;48.892;9.138;2022-09-20T15:28:18;98640.41;;;13.71;100.00
36538;BME280;22545;48.892;9.138;2022-09-20T15:30:45;98636.91;;;13.72;100.00
36538;BME280;22545;48.892;9.138;2022-09-20T15:33:10;98635.94;;;13.74;100.00
36538;BME280;22545;48.892;9.138;2022-09-20T15:35:37;98642.03;;;13.73;100.00
36538;BME280;22545;48.892;9.138;2022-09-20T15:38:02;98631.25;;;13.62;100.00
36538;BME280;22545;48.892;9.138;2022-09-20T15:40:28;98638.44;;;13.55;100.00
36538;BME280;22545;48.892;9.138;2022-09-20T15:42:54;98632.31;;;13.58;100.00
36538;BME280;22545;48.892;9.138;2022-09-20T15:45:19;98631.44;;;13.57;100.00
36538;BME280;22545;48.892;9.138;2022-09-20T15:47:45;98637.44;;;13.37;100.00
36538;BME280;22545;48.892;9.138;2022-09-20T15:50:10;98635.22;;;13.26;100.00
36538;BME280;22545;48.892;9.138;2022-09-20T15:52:36;98642.91;;;13.28;100.00
36538;BME280;22545;48.892;9.138;2022-09-20T15:55:04;98637.44;;;13.14;100.00
36538;BME280;22545;48.892;9.138;2022-09-20T15:57:30;98627.03;;;13.15;100.00
36538;BME280;22545;48.892;9.138;2022-09-20T15:59:55;98634.50;;;13.23;100.00
36538;BME280;22545;48.892;9.138;2022-09-20T16:02:22;98628.56;;;13.21;100.00
36538;BME280;22545;48.892;9.138;2022-09-20T16:04:48;98629.81;;;13.33;100.00
36538;BME280;22545;48.892;9.138;2022-09-20T16:07:15;98622.91;;;13.33;100.00
36538;BME280;22545;48.892;9.138;2022-09-20T16:09:41;98632.81;;;13.22;100.00
36538;BME280;22545;48.892;9.138;2022-09-20T16:12:07;98632.88;;;13.20;100.00
36538;BME280;22545;48.892;9.138;2022-09-20T16:14:33;98639.25;;;13.12;100.00
36538;BME280;22545;48.892;9.138;2022-09-20T16:16:58;98636.16;;;13.02;100.00
36538;BME280;22545;48.892;9.138;2022-09-20T16:19:23;98639.81;;;12.96;100.00
36538;BME280;22545;48.892;9.138;2022-09-20T16:24:17;98645.81;;;12.97;100.00
36538;BME280;22545;48.892;9.138;2022-09-20T16:26:43;98652.00;;;12.92;100.00
36538;BME280;22545;48.892;9.138;2022-09-20T16:29:08;98642.34;;;12.74;100.00
36538;BME280;22545;48.892;9.138;2022-09-20T16:31:39;98642.84;;;12.84;100.00
36538;BME280;22545;48.892;9.138;2022-09-20T16:34:15;98646.53;;;12.77;100.00
36538;BME280;22545;48.892;9.138;2022-09-20T16:36:50;98646.53;;;12.77;100.00
36538;BME280;22545;48.892;9.138;2022-09-20T16:39:17;98647.22;;;12.82;100.00
36538;BME280;22545;48.892;9.138;2022-09-20T16:41:46;98657.22;;;12.91;100.00
36538;BME280;22545;48.892;9.138;2022-09-20T16:44:12;98661.72;;;12.86;100.00
36538;BME280;22545;48.892;9.138;2022-09-20T16:46:37;98657.69;;;13.02;100.00
36538;BME280;22545;48.892;9.138;2022-09-20T16:49:06;98652.41;;;13.05;100.00
36538;BME280;22545;48.892;9.138;2022-09-20T16:51:36;98651.28;;;12.89;100.00
36538;BME280;22545;48.892;9.138;2022-09-20T16:54:03;98655.41;;;12.93;100.00
36538;BME280;22545;48.892;9.138;2022-09-20T16:56:33;98661.38;;;12.95;100.00
36538;BME280;22545;48.892;9.138;2022-09-20T16:58:59;98662.25;;;12.94;100.00
36538;BME280;22545;48.892;9.138;2022-09-20T17:01:25;98658.03;;;13.15;100.00
36538;BME280;22545;48.892;9.138;2022-09-20T17:03:50;98667.25;;;12.99;100.00
36538;BME280;22545;48.892;9.138;2022-09-20T17:06:15;98676.88;;;12.95;100.00
36538;BME280;22545;48.892;9.138;2022-09-20T17:08:41;98669.53;;;12.84;100.00
36538;BME280;22545;48.892;9.138;2022-09-20T17:11:09;98668.66;;;12.84;100.00
36538;BME280;22545;48.892;9.138;2022-09-20T17:13:35;98671.81;;;12.92;100.00
36538;BME280;22545;48.892;9.138;2022-09-20T17:16:02;98677.75;;;12.94;100.00
36538;BME280;22545;48.892;9.138;2022-09-20T17:18:28;98674.50;;;12.89;100.00
36538;BME280;22545;48.892;9.138;2022-09-20T17:20:53;98681.91;;;12.74;100.00
36538;BME280;22545;48.892;9.138;2022-09-20T17:23:19;98675.38;;;12.64;100.00
36538;BME280;22545;48.892;9.138;2022-09-20T17:25:45;98680.25;;;12.48;100.00
36538;BME280;22545;48.892;9.138;2022-09-20T17:28:12;98679.88;;;12.59;100.00
36538;BME280;22545;48.892;9.138;2022-09-20T17:30:38;98687.94;;;12.50;100.00
36538;BME280;22545;48.892;9.138;2022-09-20T17:33:05;98692.72;;;12.61;100.00
36538;BME280;22545;48.892;9.138;2022-09-20T17:35:30;98695.56;;;12.53;100.00
36538;BME280;22545;48.892;9.138;2022-09-20T17:37:55;98693.81;;;12.53;100.00
36538;BME280;22545;48.892;9.138;2022-09-20T17:40:20;98696.13;;;12.37;100.00
36538;BME280;22545;48.892;9.138;2022-09-20T17:42:46;98697.84;;;12.37;100.00
36538;BME280;22545;48.892;9.138;2022-09-20T17:45:11;98701.47;;;12.31;100.00
36538;BME280;22545;48.892;9.138;2022-09-20T17:47:36;98706.16;;;12.20;100.00
36538;BME280;22545;48.892;9.138;2022-09-20T17:50:06;98702.59;;;12.24;100.00
36538;BME280;22545;48.892;9.138;2022-09-20T17:52:31;98703.88;;;12.11;100.00
36538;BME280;22545;48.892;9.138;2022-09-20T17:54:56;98703.28;;;12.02;100.00
36538;BME280;22545;48.892;9.138;2022-09-20T17:57:21;98711.31;;;11.93;100.00
36538;BME280;22545;48.892;9.138;2022-09-20T17:59:46;98719.25;;;11.85;100.00
36538;BME280;22545;48.892;9.138;2022-09-20T18:02:12;98718.53;;;11.82;100.00
36538;BME280;22545;48.892;9.138;2022-09-20T18:04:37;98723.09;;;11.72;100.00
36538;BME280;22545;48.892;9.138;2022-09-20T18:07:02;98722.22;;;11.73;100.00